Time;durP1;ratioP1;P1;durP2;ratioP2;P2;SDS_P1;SDS_P2;PMS_P1;PMS_P2;Temp;Humidity;BMP_temperature;BMP_pressure;BME280_temperature;BME280_humidity;BME280_pressure;Samples;Min_cycle;Max_cycle;Signal;HPM_P1;HPM_P2
2022/01/14 00:00:41;;;;;;;1.80;1.70;;;0.40;98.20;;;;;;4974439;28;20840;-72
2022/01/14 00:03:08;;;;;;;1.80;1.70;;;0.40;98.20;;;;;;4977632;28;20577;-75
2022/01/14 00:05:36;;;;;;;1.70;1.60;;;0.30;98.20;;;;;;4970688;28;20470;-74
2022/01/14 00:08:03;;;;;;;1.97;1.77;;;0.30;98.20;;;;;;4983223;28;20898;-75
2022/01/14 00:10:31;;;;;;;1.80;1.70;;;0.30;98.20;;;;;;4981389;28;20853;-75
2022/01/14 00:13:07;;;;;;;1.80;1.70;;;0.20;98.20;;;;;;4985182;28;20492;-76
2022/01/14 00:15:35;;;;;;;1.80;1.70;;;0.20;98.20;;;;;;4987623;28;20960;-74
2022/01/14 00:18:02;;;;;;;2.10;1.90;;;0.20;98.20;;;;;;4984992;28;20536;-75
2022/01/14 00:20:29;;;;;;;1.70;1.60;;;0.20;98.20;;;;;;4969394;28;20597;-75
2022/01/14 00:22:59;;;;;;;1.80;1.70;;;0.10;98.20;;;;;;4990202;28;20531;-76
2022/01/14 00:33:38;;;;;;;1.70;1.60;;;0.20;98.20;;;;;;4986169;28;21182;-73
2022/01/14 00:36:05;;;;;;;1.80;1.70;;;0.20;98.20;;;;;;4964271;28;20470;-75
2022/01/14 00:38:33;;;;;;;1.80;1.70;;;0.20;98.20;;;;;;4985090;28;20881;-75
2022/01/14 00:41:00;;;;;;;1.80;1.70;;;0.20;98.20;;;;;;4985675;28;20462;-77
2022/01/14 00:43:27;;;;;;;1.80;1.70;;;0.30;98.20;;;;;;4994740;28;20461;-76
2022/01/14 00:45:55;;;;;;;1.80;1.70;;;0.30;98.20;;;;;;4977606;28;20508;-76
2022/01/14 00:48:22;;;;;;;1.90;1.80;;;0.30;98.20;;;;;;4992709;28;20467;-74
2022/01/14 00:50:49;;;;;;;2.00;1.80;;;0.30;98.20;;;;;;4965048;28;20501;-78
2022/01/14 00:53:16;;;;;;;1.77;1.67;;;0.30;98.20;;;;;;5005096;28;20457;-75
2022/01/14 00:55:52;;;;;;;1.80;1.70;;;0.30;98.20;;;;;;4979880;28;20493;-72
2022/01/14 01:01:04;;;;;;;2.00;1.80;;;0.20;98.20;;;;;;4965765;28;20445;-74
2022/01/14 01:03:32;;;;;;;1.77;1.67;;;0.20;98.20;;;;;;4990817;28;20557;-76
2022/01/14 01:05:59;;;;;;;1.70;1.60;;;0.20;98.20;;;;;;4966356;28;20565;-77
2022/01/14 01:08:27;;;;;;;1.70;1.60;;;0.20;98.20;;;;;;4995083;28;20473;-75
2022/01/14 01:10:56;;;;;;;1.90;1.80;;;0.20;98.20;;;;;;4981669;28;20484;-77
2022/01/14 01:13:26;;;;;;;1.83;1.73;;;0.20;98.20;;;;;;4998506;28;20869;-75
2022/01/14 01:15:53;;;;;;;1.80;1.70;;;0.10;98.20;;;;;;4970561;28;20468;-76
2022/01/14 01:18:21;;;;;;;2.53;2.33;;;0.10;98.20;;;;;;4988123;28;20473;-76
2022/01/14 01:20:48;;;;;;;1.80;1.70;;;0.10;98.20;;;;;;4977333;28;20461;-75
2022/01/14 01:23:15;;;;;;;1.80;1.70;;;0.10;98.20;;;;;;4996539;28;20469;-75
2022/01/14 01:25:46;;;;;;;1.70;1.60;;;0.10;98.20;;;;;;4980605;28;20480;-75
2022/01/14 01:28:14;;;;;;;1.80;1.70;;;0.00;98.20;;;;;;4965859;28;20478;-77
2022/01/14 01:30:52;;;;;;;1.80;1.70;;;0.00;98.20;;;;;;4976272;28;20776;-74
2022/01/14 01:33:20;;;;;;;1.83;1.70;;;0.00;98.20;;;;;;4965361;28;20484;-76
2022/01/14 01:35:47;;;;;;;1.83;1.70;;;0.00;98.20;;;;;;4975403;28;20477;-76
2022/01/14 01:38:17;;;;;;;1.80;1.70;;;0.00;98.20;;;;;;4994121;28;20539;-75
2022/01/14 01:40:45;;;;;;;1.93;1.73;;;0.00;98.20;;;;;;4989146;28;21005;-76
2022/01/14 01:43:15;;;;;;;1.80;1.70;;;-0.10;98.20;;;;;;4969354;28;20490;-75
2022/01/14 01:45:44;;;;;;;2.03;1.83;;;-0.10;98.20;;;;;;4975441;28;20470;-78
2022/01/14 01:48:12;;;;;;;1.70;1.60;;;-0.10;98.20;;;;;;4969102;28;20780;-76
2022/01/14 01:50:38;;;;;;;1.80;1.70;;;-0.10;98.20;;;;;;4972426;28;20518;-75
2022/01/14 01:53:06;;;;;;;1.80;1.70;;;-0.20;98.20;;;;;;4984009;28;20780;-74
2022/01/14 01:55:33;;;;;;;1.70;1.60;;;-0.20;98.20;;;;;;4978858;28;20466;-73
2022/01/14 01:58:00;;;;;;;2.00;1.80;;;-0.20;98.20;;;;;;4979226;28;20485;-73
2022/01/14 02:00:29;;;;;;;1.70;1.60;;;-0.20;98.20;;;;;;4973293;28;20462;-74
2022/01/14 02:02:57;;;;;;;1.80;1.70;;;-0.20;98.20;;;;;;4985903;28;20492;-74
2022/01/14 02:05:24;;;;;;;1.70;1.60;;;-0.20;98.20;;;;;;4983293;28;20899;-74
2022/01/14 02:07:51;;;;;;;1.70;1.60;;;-0.20;98.20;;;;;;4984976;28;20495;-76
2022/01/14 02:10:18;;;;;;;1.80;1.70;;;-0.20;98.20;;;;;;4985798;28;20469;-75
2022/01/14 02:12:50;;;;;;;1.70;1.60;;;-0.20;98.20;;;;;;4985499;28;20522;-76
2022/01/14 02:15:44;;;;;;;1.87;1.70;;;-0.30;98.20;;;;;;4979730;28;20544;-73
2022/01/14 02:18:28;;;;;;;1.90;1.80;;;-0.20;98.20;;;;;;4975391;28;21392;-76
2022/01/14 02:23:46;;;;;;;1.77;1.67;;;-0.30;98.20;;;;;;4997940;28;20456;-75
2022/01/14 02:26:13;;;;;;;2.10;1.90;;;-0.30;98.20;;;;;;4961456;28;20503;-74
2022/01/14 02:28:41;;;;;;;2.00;1.80;;;-0.30;98.20;;;;;;4988247;28;20835;-75
2022/01/14 02:31:08;;;;;;;1.97;1.80;;;-0.30;98.20;;;;;;4977782;28;20500;-74
2022/01/14 02:33:35;;;;;;;1.80;1.70;;;-0.30;98.20;;;;;;4988449;28;20497;-74
2022/01/14 02:36:06;;;;;;;2.00;1.80;;;-0.30;98.20;;;;;;4973456;28;20466;-76
2022/01/14 02:38:33;;;;;;;1.97;1.80;;;-0.30;98.20;;;;;;4994059;28;20468;-75
2022/01/14 02:41:00;;;;;;;1.70;1.60;;;-0.30;98.20;;;;;;4981951;28;20558;-75
2022/01/14 02:43:27;;;;;;;2.00;1.80;;;-0.30;98.20;;;;;;4994682;28;20469;-75
2022/01/14 02:45:57;;;;;;;1.80;1.70;;;-0.30;98.20;;;;;;4972289;28;20484;-74
2022/01/14 02:48:25;;;;;;;1.80;1.70;;;-0.40;98.20;;;;;;4988076;28;20765;-76
2022/01/14 02:50:57;;;;;;;1.83;1.73;;;-0.40;98.20;;;;;;4962965;28;20505;-77
2022/01/14 02:53:29;;;;;;;1.77;1.67;;;-0.40;98.20;;;;;;4991868;28;20468;-73
2022/01/14 02:55:59;;;;;;;1.80;1.70;;;-0.40;98.20;;;;;;4969243;28;20916;-75
2022/01/14 02:58:29;;;;;;;1.83;1.70;;;-0.40;98.20;;;;;;4983867;28;20985;-74
2022/01/14 03:00:59;;;;;;;1.80;1.70;;;-0.40;98.20;;;;;;4965447;28;20449;-76
2022/01/14 03:03:27;;;;;;;1.70;1.60;;;-0.40;98.20;;;;;;5030101;23;20500;-73
2022/01/14 03:05:54;;;;;;;1.80;1.70;;;-0.40;98.20;;;;;;4975715;28;21050;-73
2022/01/14 03:08:22;;;;;;;1.70;1.60;;;-0.50;98.20;;;;;;4989841;28;20458;-74
2022/01/14 03:10:54;;;;;;;1.80;1.70;;;-0.50;98.20;;;;;;4971677;28;20529;-75
2022/01/14 03:13:22;;;;;;;1.80;1.70;;;-0.50;98.20;;;;;;5008035;28;20489;-74
2022/01/14 03:15:49;;;;;;;1.70;1.60;;;-0.40;98.20;;;;;;4962616;28;21007;-74
2022/01/14 03:18:21;;;;;;;1.80;1.70;;;-0.40;98.20;;;;;;5019749;28;20563;-74
2022/01/14 03:20:50;;;;;;;1.80;1.70;;;-0.50;98.20;;;;;;4971687;28;20465;-73
2022/01/14 03:23:18;;;;;;;1.80;1.70;;;-0.50;98.20;;;;;;5011226;28;21150;-74
2022/01/14 03:25:52;;;;;;;2.10;1.90;;;-0.40;98.20;;;;;;4981885;28;20472;-72
2022/01/14 03:28:22;;;;;;;1.80;1.70;;;-0.50;98.20;;;;;;4967787;28;20564;-72
2022/01/14 03:30:50;;;;;;;1.70;1.60;;;-0.50;98.20;;;;;;4962215;28;20468;-72
2022/01/14 03:33:17;;;;;;;1.80;1.70;;;-0.40;98.20;;;;;;5005958;28;20814;-72
2022/01/14 03:35:44;;;;;;;1.97;1.80;;;-0.40;98.20;;;;;;4970065;28;20474;-72
2022/01/14 03:38:11;;;;;;;1.87;1.70;;;-0.40;98.20;;;;;;4968914;28;20481;-72
2022/01/14 03:40:38;;;;;;;2.00;1.80;;;-0.50;98.20;;;;;;4989512;28;20467;-72
2022/01/14 03:43:05;;;;;;;1.70;1.60;;;-0.50;98.20;;;;;;4995100;28;20496;-72
2022/01/14 03:45:33;;;;;;;1.70;1.60;;;-0.50;98.20;;;;;;4984277;28;20464;-72
2022/01/14 03:47:59;;;;;;;2.00;1.80;;;-0.50;98.20;;;;;;4996733;28;20575;-72
2022/01/14 03:50:27;;;;;;;1.80;1.70;;;-0.50;98.20;;;;;;4972836;28;20847;-72
2022/01/14 03:52:54;;;;;;;1.73;1.63;;;-0.60;98.20;;;;;;4995723;28;20494;-73
2022/01/14 03:55:21;;;;;;;1.80;1.70;;;-0.60;98.20;;;;;;4985821;28;20488;-74
2022/01/14 03:57:49;;;;;;;1.80;1.70;;;-0.60;98.20;;;;;;5004822;28;20479;-74
2022/01/14 04:00:17;;;;;;;1.83;1.73;;;-0.60;98.20;;;;;;4974269;28;20683;-73
2022/01/14 04:02:45;;;;;;;1.80;1.70;;;-0.60;98.20;;;;;;5003032;28;20487;-73
2022/01/14 04:05:13;;;;;;;2.20;2.00;;;-0.60;98.20;;;;;;4980498;28;20472;-75
2022/01/14 04:07:41;;;;;;;2.00;1.80;;;-0.50;98.20;;;;;;5011001;28;20911;-74
2022/01/14 04:10:10;;;;;;;2.20;2.00;;;-0.50;98.20;;;;;;4985843;28;20499;-73
2022/01/14 04:12:47;;;;;;;1.80;1.70;;;-0.50;98.20;;;;;;5010552;28;20821;-73
2022/01/14 04:18:02;;;;;;;1.80;1.70;;;-0.50;98.20;;;;;;5015403;28;20522;-72
2022/01/14 04:20:29;;;;;;;1.93;1.80;;;-0.50;98.20;;;;;;4974973;28;20458;-73
2022/01/14 04:22:57;;;;;;;1.83;1.73;;;-0.40;98.20;;;;;;5002474;28;20480;-74
2022/01/14 04:25:24;;;;;;;1.80;1.70;;;-0.40;98.20;;;;;;5002959;28;20467;-74
2022/01/14 04:27:51;;;;;;;1.80;1.70;;;-0.40;98.20;;;;;;5008352;28;20475;-74
2022/01/14 04:30:18;;;;;;;1.90;1.70;;;-0.40;98.20;;;;;;4984113;28;20469;-74
2022/01/14 04:32:45;;;;;;;1.80;1.70;;;-0.40;98.20;;;;;;4997939;28;20976;-74
2022/01/14 04:35:14;;;;;;;1.83;1.70;;;-0.40;98.20;;;;;;4988212;28;20483;-74
2022/01/14 04:37:41;;;;;;;1.80;1.70;;;-0.40;98.20;;;;;;4994180;28;20479;-73
2022/01/14 04:40:09;;;;;;;1.80;1.70;;;-0.40;98.20;;;;;;4988615;28;20465;-73
2022/01/14 04:42:36;;;;;;;1.97;1.80;;;-0.40;98.20;;;;;;5004918;28;20490;-73
2022/01/14 04:45:04;;;;;;;2.00;1.83;;;-0.40;98.20;;;;;;4986383;28;20640;-72
2022/01/14 04:47:34;;;;;;;1.80;1.70;;;-0.30;98.20;;;;;;4992666;28;20478;-73
2022/01/14 04:50:01;;;;;;;1.80;1.70;;;-0.30;98.20;;;;;;4993279;28;20555;-75
2022/01/14 04:52:30;;;;;;;1.70;1.60;;;-0.30;98.20;;;;;;4996605;28;20486;-74
2022/01/14 04:54:57;;;;;;;1.90;1.80;;;-0.30;98.20;;;;;;4989653;28;20469;-73
2022/01/14 04:57:23;;;;;;;1.80;1.70;;;-0.30;98.20;;;;;;4992976;28;20495;-74
2022/01/14 04:59:51;;;;;;;1.80;1.70;;;-0.40;98.20;;;;;;4995975;28;20472;-74
2022/01/14 05:02:18;;;;;;;2.00;1.80;;;-0.40;98.20;;;;;;4995283;28;20495;-74
2022/01/14 05:04:46;;;;;;;1.70;1.60;;;-0.30;98.20;;;;;;4982691;28;20533;-74
2022/01/14 05:07:22;;;;;;;1.80;1.70;;;-0.30;98.20;;;;;;4988705;28;20546;-73
2022/01/14 05:09:59;;;;;;;1.80;1.70;;;-0.40;98.20;;;;;;4992607;28;20471;-74
2022/01/14 05:12:26;;;;;;;1.97;1.80;;;-0.40;98.20;;;;;;4997218;28;20538;-74
2022/01/14 05:14:53;;;;;;;1.90;1.80;;;-0.40;98.20;;;;;;4982240;28;20488;-73
2022/01/14 05:17:19;;;;;;;1.73;1.63;;;-0.40;98.20;;;;;;4988614;28;21012;-73
2022/01/14 05:19:47;;;;;;;1.83;1.70;;;-0.50;98.20;;;;;;4979369;28;20470;-73
2022/01/14 05:22:14;;;;;;;1.80;1.70;;;-0.50;98.20;;;;;;4993690;28;20475;-73
2022/01/14 05:24:41;;;;;;;1.70;1.60;;;-0.50;98.20;;;;;;4990256;28;20466;-73
2022/01/14 05:27:09;;;;;;;1.90;1.77;;;-0.50;98.20;;;;;;4986691;28;20488;-73
2022/01/14 05:29:36;;;;;;;1.80;1.70;;;-0.50;98.20;;;;;;4982278;28;20476;-73
2022/01/14 05:32:05;;;;;;;1.80;1.70;;;-0.50;98.20;;;;;;4993740;28;20491;-75
2022/01/14 05:34:33;;;;;;;1.80;1.70;;;-0.50;98.20;;;;;;4986201;28;20462;-73
2022/01/14 05:37:00;;;;;;;1.70;1.60;;;-0.50;98.20;;;;;;4989970;28;20839;-72
2022/01/14 05:39:27;;;;;;;1.70;1.60;;;-0.50;98.20;;;;;;5001653;28;20460;-73
2022/01/14 05:41:55;;;;;;;1.80;1.70;;;-0.50;98.20;;;;;;4991189;28;20479;-74
2022/01/14 05:44:24;;;;;;;1.80;1.70;;;-0.50;98.20;;;;;;4997515;28;20556;-74
2022/01/14 05:46:51;;;;;;;1.77;1.67;;;-0.60;98.20;;;;;;4987917;28;21094;-74
2022/01/14 05:49:18;;;;;;;1.70;1.60;;;-0.60;98.20;;;;;;4984763;28;20478;-73
2022/01/14 05:51:45;;;;;;;2.00;1.80;;;-0.60;98.20;;;;;;4982669;28;20526;-73
2022/01/14 05:54:12;;;;;;;1.73;1.63;;;-0.60;98.20;;;;;;4995834;28;20473;-74
2022/01/14 05:56:39;;;;;;;1.80;1.70;;;-0.70;98.20;;;;;;4990630;28;20484;-73
2022/01/14 05:59:06;;;;;;;1.80;1.70;;;-0.70;98.20;;;;;;5000599;28;20466;-74
2022/01/14 06:01:34;;;;;;;1.70;1.60;;;-0.70;98.20;;;;;;4985607;28;20559;-73
2022/01/14 06:25:00;;;;;;;1.93;1.73;;;-0.80;98.20;;;;;;4973595;28;20491;-73
2022/01/14 06:27:27;;;;;;;1.90;1.80;;;-0.80;98.20;;;;;;4995746;28;20486;-73
2022/01/14 06:29:53;;;;;;;1.80;1.70;;;-0.80;98.20;;;;;;4979813;28;20470;-73
2022/01/14 06:32:20;;;;;;;1.87;1.70;;;-0.80;98.20;;;;;;4993787;28;20912;-75
2022/01/14 06:34:47;;;;;;;1.80;1.70;;;-0.80;98.20;;;;;;4976477;28;21021;-74
2022/01/14 06:37:14;;;;;;;1.87;1.73;;;-0.80;98.20;;;;;;4987805;28;20487;-73
2022/01/14 06:39:41;;;;;;;2.00;1.80;;;-0.90;98.20;;;;;;4994902;28;20968;-74
2022/01/14 06:42:09;;;;;;;1.97;1.80;;;-0.90;98.20;;;;;;4980971;28;20481;-74
2022/01/14 06:44:36;;;;;;;1.97;1.80;;;-0.90;98.20;;;;;;4989905;28;20511;-74
2022/01/14 06:47:03;;;;;;;2.00;1.80;;;-0.90;98.20;;;;;;4982921;28;21050;-76
2022/01/14 06:49:30;;;;;;;1.90;1.77;;;-1.00;98.20;;;;;;4984002;28;20515;-75
2022/01/14 06:51:56;;;;;;;2.00;1.80;;;-1.00;98.20;;;;;;4988791;28;20506;-74
2022/01/14 06:54:23;;;;;;;1.83;1.70;;;-1.00;98.20;;;;;;4991989;28;20469;-74
2022/01/14 06:56:50;;;;;;;1.93;1.80;;;-1.00;98.20;;;;;;4990793;28;20498;-74
2022/01/14 06:59:18;;;;;;;2.20;2.00;;;-1.00;98.20;;;;;;4993090;28;20654;-75
2022/01/14 07:01:45;;;;;;;2.00;1.80;;;-1.00;98.20;;;;;;4981680;28;20843;-73
2022/01/14 07:04:12;;;;;;;1.93;1.73;;;-1.00;98.20;;;;;;4995616;28;20473;-74
2022/01/14 07:06:39;;;;;;;1.80;1.70;;;-1.00;98.20;;;;;;4988053;28;20490;-74
2022/01/14 07:09:06;;;;;;;2.07;1.87;;;-1.10;98.20;;;;;;4995504;28;20471;-74
2022/01/14 07:11:36;;;;;;;1.97;1.80;;;-1.10;98.20;;;;;;4995317;28;21078;-75
2022/01/14 07:14:03;;;;;;;1.90;1.77;;;-1.10;98.20;;;;;;4997816;28;20552;-74
2022/01/14 07:16:32;;;;;;;2.00;1.80;;;-1.10;98.20;;;;;;4983488;28;20502;-74
2022/01/14 07:18:59;;;;;;;2.00;1.80;;;-1.10;98.20;;;;;;4990171;28;21057;-75
2022/01/14 07:21:26;;;;;;;1.80;1.70;;;-1.10;98.20;;;;;;4983144;28;21148;-75
2022/01/14 07:23:53;;;;;;;1.80;1.70;;;-1.10;98.20;;;;;;4998037;28;20477;-74
2022/01/14 07:26:20;;;;;;;1.80;1.70;;;-1.00;98.20;;;;;;4982512;28;20499;-74
2022/01/14 07:28:47;;;;;;;2.00;1.80;;;-1.00;98.20;;;;;;4993003;28;20473;-74
2022/01/14 07:31:14;;;;;;;1.90;1.80;;;-1.00;98.20;;;;;;4975502;28;20483;-74
2022/01/14 07:33:42;;;;;;;1.80;1.70;;;-1.00;98.20;;;;;;5010924;28;20503;-74
2022/01/14 07:36:08;;;;;;;1.80;1.70;;;-1.00;98.20;;;;;;4969873;28;20491;-73
2022/01/14 07:38:35;;;;;;;1.93;1.80;;;-1.00;98.20;;;;;;4995853;28;20476;-74
2022/01/14 07:41:02;;;;;;;1.80;1.70;;;-1.00;98.20;;;;;;4979609;28;20975;-74
2022/01/14 07:43:29;;;;;;;1.80;1.70;;;-1.00;98.20;;;;;;5005838;28;21009;-74
2022/01/14 07:45:56;;;;;;;1.80;1.70;;;-1.00;98.20;;;;;;4961728;28;20466;-74
2022/01/14 07:48:23;;;;;;;1.77;1.67;;;-1.00;98.20;;;;;;5009927;28;20460;-73
2022/01/14 07:50:51;;;;;;;1.80;1.70;;;-0.90;98.20;;;;;;4962835;28;20525;-74
2022/01/14 07:53:18;;;;;;;1.93;1.80;;;-0.90;98.20;;;;;;5017909;28;20499;-73
2022/01/14 07:55:45;;;;;;;1.93;1.73;;;-0.90;98.20;;;;;;4979576;28;20468;-73
2022/01/14 07:58:12;;;;;;;2.07;1.87;;;-0.80;98.20;;;;;;5012775;28;20491;-73
2022/01/14 08:00:40;;;;;;;1.80;1.70;;;-0.80;98.20;;;;;;4990394;28;20473;-73
2022/01/14 08:03:08;;;;;;;2.00;1.80;;;-0.70;98.20;;;;;;5001210;28;20480;-73
2022/01/14 08:05:35;;;;;;;1.80;1.70;;;-0.70;98.20;;;;;;4978716;28;20493;-75
2022/01/14 08:08:07;;;;;;;1.90;1.80;;;-0.60;98.20;;;;;;5001747;28;20535;-73
2022/01/14 08:10:34;;;;;;;2.07;1.87;;;-0.50;98.20;;;;;;4996625;28;20896;-74
2022/01/14 08:13:01;;;;;;;1.70;1.60;;;-0.40;98.20;;;;;;5002228;28;20473;-74
2022/01/14 08:15:28;;;;;;;1.77;1.67;;;-0.40;98.20;;;;;;4975786;28;20488;-74
2022/01/14 08:17:55;;;;;;;1.80;1.70;;;-0.30;98.20;;;;;;5007394;28;20487;-74
2022/01/14 08:20:22;;;;;;;1.80;1.70;;;-0.20;98.20;;;;;;4980849;28;21008;-74
2022/01/14 08:22:51;;;;;;;1.87;1.77;;;-0.10;98.20;;;;;;4997483;28;20504;-74
2022/01/14 08:25:19;;;;;;;1.80;1.70;;;0.00;98.20;;;;;;4982243;28;20456;-73
2022/01/14 08:27:45;;;;;;;1.70;1.60;;;0.00;98.20;;;;;;4999732;28;20486;-74
2022/01/14 08:30:13;;;;;;;1.70;1.60;;;0.10;98.20;;;;;;4976907;28;20467;-73
2022/01/14 08:32:40;;;;;;;1.70;1.60;;;0.20;98.20;;;;;;5000373;28;20971;-73
2022/01/14 08:35:07;;;;;;;1.70;1.60;;;0.20;98.20;;;;;;4984481;28;20476;-73
2022/01/14 08:37:34;;;;;;;1.70;1.60;;;0.30;98.20;;;;;;4998256;28;20483;-73
2022/01/14 08:40:01;;;;;;;1.80;1.70;;;0.40;98.20;;;;;;4984731;28;20469;-73
2022/01/14 08:42:29;;;;;;;1.77;1.67;;;0.50;98.20;;;;;;5002159;28;20479;-73
2022/01/14 08:44:56;;;;;;;3.30;3.10;;;0.50;98.20;;;;;;4976043;28;20466;-73
2022/01/14 08:47:23;;;;;;;1.70;1.60;;;0.60;98.20;;;;;;4988233;28;20860;-73
2022/01/14 08:49:50;;;;;;;1.70;1.60;;;0.70;98.20;;;;;;4992459;28;20466;-72
2022/01/14 08:52:17;;;;;;;1.80;1.70;;;0.70;98.20;;;;;;5001304;28;20490;-72
2022/01/14 08:54:44;;;;;;;1.80;1.70;;;0.80;98.20;;;;;;4983238;28;20470;-72
2022/01/14 08:57:11;;;;;;;1.70;1.50;;;0.80;98.20;;;;;;4990431;28;20499;-72
2022/01/14 08:59:39;;;;;;;1.70;1.60;;;0.90;98.20;;;;;;4981236;28;20898;-72
2022/01/14 09:02:06;;;;;;;1.80;1.70;;;1.00;98.20;;;;;;4990517;28;20666;-72
2022/01/14 09:04:34;;;;;;;1.70;1.50;;;1.00;98.20;;;;;;4987993;28;20516;-72
2022/01/14 09:07:00;;;;;;;1.70;1.60;;;1.10;98.20;;;;;;4975804;28;20511;-72
2022/01/14 09:09:28;;;;;;;1.70;1.50;;;1.10;98.20;;;;;;4992819;28;20853;-71
2022/01/14 09:11:55;;;;;;;1.70;1.50;;;1.10;98.20;;;;;;4988027;28;20476;-72
2022/01/14 09:14:23;;;;;;;1.70;1.50;;;1.20;98.20;;;;;;4986829;28;20490;-71
2022/01/14 09:16:51;;;;;;;1.70;1.50;;;1.30;98.20;;;;;;4992127;28;20563;-71
2022/01/14 09:19:18;;;;;;;1.70;1.60;;;1.40;98.20;;;;;;4987122;28;20813;-70
2022/01/14 09:21:45;;;;;;;1.70;1.60;;;1.40;98.20;;;;;;4982526;28;21072;-70
2022/01/14 09:24:12;;;;;;;1.70;1.50;;;1.50;98.20;;;;;;4997286;28;20524;-70
2022/01/14 09:26:40;;;;;;;1.70;1.60;;;1.60;98.20;;;;;;4986467;28;20484;-71
2022/01/14 09:29:08;;;;;;;1.70;1.60;;;1.70;98.20;;;;;;4994493;28;20564;-71
2022/01/14 09:31:35;;;;;;;1.70;1.50;;;1.70;98.20;;;;;;4990728;28;20567;-70
2022/01/14 09:34:03;;;;;;;1.70;1.50;;;1.80;98.20;;;;;;4996926;28;20492;-71
2022/01/14 09:36:30;;;;;;;1.70;1.50;;;1.90;98.20;;;;;;4978006;28;20492;-70
2022/01/14 09:38:58;;;;;;;2.73;2.53;;;1.90;98.20;;;;;;4998107;28;20471;-70
2022/01/14 09:41:25;;;;;;;1.70;1.60;;;2.00;98.20;;;;;;4982923;28;20573;-70
2022/01/14 09:43:52;;;;;;;1.70;1.50;;;2.00;98.20;;;;;;4998476;28;20488;-71
2022/01/14 09:46:19;;;;;;;1.80;1.70;;;2.10;98.20;;;;;;4981975;28;20486;-70
2022/01/14 09:48:50;;;;;;;1.63;1.40;;;2.10;98.20;;;;;;4999114;28;20473;-70
2022/01/14 09:51:18;;;;;;;1.70;1.50;;;2.20;98.20;;;;;;4976165;28;20562;-71
2022/01/14 09:53:45;;;;;;;1.70;1.50;;;2.20;98.20;;;;;;5001542;28;20654;-71
2022/01/14 09:56:15;;;;;;;1.80;1.70;;;2.20;98.20;;;;;;4974845;28;20489;-70
2022/01/14 09:58:46;;;;;;;1.70;1.50;;;2.20;98.20;;;;;;5003126;28;20923;-70
2022/01/14 10:01:15;;;;;;;1.70;1.50;;;2.30;98.20;;;;;;4972079;28;20568;-72
2022/01/14 10:03:51;;;;;;;1.63;1.47;;;2.30;98.20;;;;;;5002556;28;20676;-71
2022/01/14 10:06:42;;;;;;;1.70;1.50;;;2.40;98.20;;;;;;4984595;28;20494;-72
2022/01/14 10:09:12;;;;;;;1.70;1.50;;;2.50;98.20;;;;;;4997135;28;20465;-71
2022/01/14 10:11:42;;;;;;;1.63;1.40;;;2.60;98.20;;;;;;4987246;28;20489;-72
2022/01/14 10:14:12;;;;;;;1.70;1.50;;;2.60;98.20;;;;;;4991200;28;20498;-71
2022/01/14 10:16:41;;;;;;;1.63;1.40;;;2.60;98.20;;;;;;4985886;28;20484;-72
2022/01/14 10:19:18;;;;;;;1.67;1.47;;;2.60;98.20;;;;;;4996329;28;20469;-72
2022/01/14 10:21:47;;;;;;;1.67;1.40;;;2.60;98.20;;;;;;4983728;28;20873;-72
2022/01/14 10:24:14;;;;;;;1.63;1.40;;;2.60;98.20;;;;;;4995316;28;20461;-73
2022/01/14 10:26:52;;;;;;;1.70;1.33;;;2.60;98.20;;;;;;4986414;28;20948;-73
2022/01/14 10:29:31;;;;;;;1.70;1.60;;;2.60;98.20;;;;;;4995942;28;20472;-73
2022/01/14 10:31:58;;;;;;;4.30;3.90;;;2.60;98.20;;;;;;4978508;28;20987;-75
2022/01/14 10:34:26;;;;;;;1.70;1.40;;;2.50;98.20;;;;;;4995281;28;20523;-73
2022/01/14 10:37:10;;;;;;;1.67;1.50;;;2.50;98.20;;;;;;4977161;28;20484;-72
2022/01/14 10:39:44;;;;;;;1.70;1.50;;;2.50;98.20;;;;;;4990965;28;20470;-72
2022/01/14 10:42:26;;;;;;;1.70;1.40;;;2.50;98.20;;;;;;4993471;28;20930;-72
2022/01/14 10:44:53;;;;;;;1.73;1.40;;;2.50;98.20;;;;;;4990020;28;20503;-72
2022/01/14 10:47:22;;;;;;;1.63;1.40;;;2.50;98.20;;;;;;4992984;28;20499;-72
2022/01/14 10:49:50;;;;;;;1.67;1.40;;;2.60;98.20;;;;;;4984655;28;20495;-72
2022/01/14 10:52:20;;;;;;;1.70;1.60;;;2.60;98.20;;;;;;4993241;28;20495;-72
2022/01/14 10:54:50;;;;;;;1.70;1.40;;;2.50;98.20;;;;;;4986314;28;20493;-72
2022/01/14 10:57:19;;;;;;;1.60;1.40;;;2.50;98.20;;;;;;4981302;28;20492;-72
2022/01/14 10:59:48;;;;;;;1.63;1.40;;;2.60;98.20;;;;;;4981033;28;20465;-72
2022/01/14 11:02:34;;;;;;;1.70;1.40;;;2.60;98.20;;;;;;4983388;28;20496;-72
2022/01/14 11:05:06;;;;;;;1.67;1.40;;;2.60;98.20;;;;;;4981043;28;20462;-72
2022/01/14 11:07:35;;;;;;;1.70;1.53;;;2.70;98.20;;;;;;4980388;28;20583;-72
2022/01/14 11:10:03;;;;;;;1.73;1.63;;;2.70;98.20;;;;;;4983371;28;20696;-71
2022/01/14 11:12:30;;;;;;;1.70;1.50;;;2.70;98.20;;;;;;4979909;28;21387;-73
2022/01/14 11:14:57;;;;;;;1.67;1.40;;;2.80;98.20;;;;;;4977349;28;20485;-73
2022/01/14 11:17:24;;;;;;;1.70;1.50;;;2.80;98.20;;;;;;4995848;28;20570;-72
2022/01/14 11:19:50;;;;;;;1.67;1.40;;;2.90;98.20;;;;;;4989387;28;20492;-73
2022/01/14 11:25:03;;;;;;;1.60;1.40;;;3.00;98.20;;;;;;4981040;28;20441;-73
2022/01/14 11:27:31;;;;;;;3.90;3.20;;;3.00;98.20;;;;;;4987423;28;20486;-73
2022/01/14 11:30:00;;;;;;;1.70;1.40;;;3.10;98.20;;;;;;4982097;28;20498;-73
2022/01/14 11:32:28;;;;;;;1.70;1.40;;;3.10;98.20;;;;;;4991786;28;20484;-76
2022/01/14 11:34:55;;;;;;;1.70;1.47;;;3.10;98.20;;;;;;4981720;28;20505;-73
2022/01/14 11:37:36;;;;;;;1.63;1.40;;;3.10;98.20;;;;;;4983673;28;20500;-75
2022/01/14 11:40:07;;;;;;;1.70;1.50;;;3.20;98.20;;;;;;4976232;28;20497;-72
2022/01/14 11:42:42;;;;;;;1.70;1.50;;;3.20;98.20;;;;;;5002886;28;20730;-72
2022/01/14 11:45:09;;;;;;;1.67;1.40;;;3.20;98.20;;;;;;4988401;28;20882;-76
2022/01/14 11:48:02;;;;;;;1.70;1.50;;;3.20;98.20;;;;;;4991799;28;20488;-73
2022/01/14 11:50:48;;;;;;;2.17;1.97;;;3.20;98.20;;;;;;4978256;28;20835;-72
2022/01/14 11:53:48;;;;;;;1.67;1.40;;;3.30;98.20;;;;;;4970436;28;20504;-74
2022/01/14 11:56:47;;;;;;;1.70;1.47;;;3.40;98.20;;;;;;4931433;28;20489;-75
2022/01/14 11:59:40;;;;;;;1.70;1.40;;;3.40;98.20;;;;;;4970424;28;20861;-73
2022/01/14 12:02:31;;;;;;;1.60;1.40;;;3.40;98.20;;;;;;4984902;28;20574;-71
2022/01/14 12:05:14;;;;;;;1.60;1.30;;;3.50;98.20;;;;;;4985524;28;20457;-72
2022/01/14 12:08:21;;;;;;;1.67;1.40;;;3.50;98.20;;;;;;4989641;28;20500;-72
2022/01/14 12:10:50;;;;;;;1.70;1.40;;;3.50;98.20;;;;;;4973567;28;20465;-74
2022/01/14 12:13:24;;;;;;;1.63;1.40;;;3.50;98.20;;;;;;5009350;28;20494;-73
2022/01/14 12:15:58;;;;;;;1.70;1.40;;;3.50;98.20;;;;;;4971197;28;20469;-73
2022/01/14 12:19:21;;;;;;;1.60;1.40;;;3.50;98.20;;;;;;5000409;28;20569;-73
2022/01/14 12:22:11;;;;;;;1.70;1.40;;;3.50;98.20;;;;;;4984146;28;20514;-74
2022/01/14 12:24:53;;;;;;;1.67;1.40;;;3.60;98.20;;;;;;4970702;28;20464;-75
2022/01/14 12:27:31;;;;;;;1.70;1.50;;;3.60;98.20;;;;;;4988577;28;20579;-71
2022/01/14 12:30:28;;;;;;;1.70;1.60;;;3.60;98.20;;;;;;4975388;28;20477;-74
2022/01/14 12:32:55;;;;;;;1.67;1.40;;;3.60;98.20;;;;;;5000674;28;20805;-73
2022/01/14 12:35:30;;;;;;;1.70;1.40;;;3.50;98.20;;;;;;4974694;28;20847;-73
2022/01/14 12:37:59;;;;;;;1.63;1.40;;;3.50;98.20;;;;;;4998676;28;20815;-73
2022/01/14 12:40:28;;;;;;;1.67;1.40;;;3.50;98.20;;;;;;4978833;28;20472;-73
2022/01/14 12:42:57;;;;;;;1.70;1.53;;;3.40;98.20;;;;;;5002506;28;20484;-74
2022/01/14 12:45:29;;;;;;;1.67;1.40;;;3.40;98.20;;;;;;4983242;28;20969;-72
2022/01/14 12:48:40;;;;;;;1.67;1.40;;;3.40;98.20;;;;;;4990463;28;20489;-77
2022/01/14 12:51:12;;;;;;;1.70;1.60;;;3.30;98.20;;;;;;4972465;28;20895;-73
2022/01/14 12:53:48;;;;;;;1.70;1.50;;;3.30;98.20;;;;;;5000266;28;20516;-73
2022/01/14 12:56:17;;;;;;;1.70;1.40;;;3.30;98.20;;;;;;4981359;28;20552;-74
2022/01/14 12:58:59;;;;;;;1.70;1.40;;;3.40;98.20;;;;;;4994498;28;20480;-71
2022/01/14 13:01:30;;;;;;;1.70;1.57;;;3.40;98.20;;;;;;4984933;28;20482;-76
2022/01/14 13:03:58;;;;;;;1.70;1.47;;;3.50;98.20;;;;;;5003477;28;21218;-72
2022/01/14 13:06:25;;;;;;;1.70;1.60;;;3.50;98.20;;;;;;4977622;28;20759;-76
2022/01/14 13:08:57;;;;;;;1.70;1.40;;;3.60;98.20;;;;;;5005757;28;20534;-74
2022/01/14 13:11:25;;;;;;;1.70;1.50;;;3.70;98.20;;;;;;4987198;28;20568;-74
2022/01/14 13:14:03;;;;;;;1.70;1.37;;;3.80;98.20;;;;;;5003512;28;20498;-77
2022/01/14 13:16:45;;;;;;;1.70;1.60;;;3.80;98.20;;;;;;4974459;28;20519;-75
2022/01/14 13:19:27;;;;;;;1.70;1.60;;;3.80;98.20;;;;;;4982757;28;20996;-74
2022/01/14 13:21:54;;;;;;;1.70;1.33;;;3.90;98.20;;;;;;4981713;28;20491;-72
2022/01/14 13:24:26;;;;;;;1.60;1.30;;;3.90;98.20;;;;;;4993279;28;20473;-73
2022/01/14 13:27:06;;;;;;;1.70;1.40;;;3.90;98.20;;;;;;4982546;28;20595;-72
2022/01/14 13:29:38;;;;;;;1.60;1.40;;;3.90;98.20;;;;;;4991564;28;20461;-74
2022/01/14 13:32:08;;;;;;;1.70;1.50;;;3.90;98.20;;;;;;4990877;28;20483;-75
2022/01/14 13:34:35;;;;;;;1.70;1.50;;;3.90;98.20;;;;;;4988847;28;20505;-74
2022/01/14 13:37:02;;;;;;;1.70;1.50;;;4.00;98.20;;;;;;4981767;28;20488;-74
2022/01/14 13:39:29;;;;;;;2.17;1.97;;;4.00;98.20;;;;;;4986200;28;20461;-72
2022/01/14 13:41:56;;;;;;;1.70;1.60;;;4.00;98.20;;;;;;4990442;28;20882;-72
2022/01/14 13:44:31;;;;;;;1.70;1.40;;;4.00;98.20;;;;;;4995573;28;20901;-74
2022/01/14 13:47:01;;;;;;;1.70;1.50;;;4.00;98.20;;;;;;4979695;28;20544;-74